Terminal Aerodrome Forecast
Issued by NWS

Home | Current Version | Previous Version | Graphics & Text | Print | Product List | Glossary On
Versions: 1 2 3 4 5 6 7 8 9 10 11 12 13 14 15
001
FTUS43 KBIS 201721
TAFDIK
TAF
KDIK 201721Z 2018/2118 24015G25KT P6SM SKC
     FM210100 17009KT P6SM SCT250
     FM211100 23007KT P6SM BKN100
     FM211300 28006KT P6SM BKN110
     FM211400 32010KT P6SM BKN130=

USA.gov is the U.S. government's official web portal to all federal, state and local government web resources and services.